Ryuoh Maru No.2 — JM5900 — position and weather

sailwx.info

Track history (hours):
 
Tides and Currents Weather Stations Pressure Air Temp Water Temp Dewpoint Dewpoint Depression Visibility Wind Speed Wind Dir Waves Ship Positions

Ryuoh Maru No.2

Last reported at 2017-Jun-05 16:06 UTC. Time now 2017-Aug-17 13:41 UTC.
Position N 33°57' E 135°01'.
Warning: this ship's position is months out of date.

Length 80 m; draft 4.9 m.

Type: Cargo ship. MMSI: 431401218.

Date/timePositionNaut miles runAvg speedWind from/ knotsBaromVisibWave heightAir tempDewpointWater temp
2017-Jun-05 16:06N 33°57' E 135°01'412.3
2017-Jun-05 15:48N 34°00' E 135°00'412.4
2017-Jun-05 15:29N 34°04' E 134°60'612.7
2017-Jun-05 15:00N 34°10' E 134°59'1512.5
2017-Jun-05 13:48N 34°25' E 135°04'413.0
2017-Jun-05 13:30N 34°27' E 135°08'612.2
2017-Jun-05 13:00N 34°31' E 135°14'612.1
2017-Jun-05 12:31N 34°35' E 135°19'5 9.7
2017-Jun-05 12:00N 34°36' E 135°25'2 0.2
2017-Jun-05 00:55N 34°35' E 135°27'0 1.1
2017-Jun-05 00:30N 34°35' E 135°27'4 8.3
2017-Jun-05 00:00N 34°36' E 135°22'3 6.6
2017-Jun-04 23:30N 34°35' E 135°18'0 0.1
2017-Jun-04 22:53N 34°35' E 135°18'0 0.0
2017-Jun-04 22:17N 34°35' E 135°18'0 0.0
2017-Jun-04 21:41N 34°35' E 135°18'0 0.0
2017-Jun-04 21:29N 34°35' E 135°18'0 0.0
2017-Jun-04 20:59N 34°35' E 135°18'0 0.1
2017-Jun-04 20:29N 34°35' E 135°18'0 0.0
2017-Jun-04 19:47N 34°35' E 135°18'1 2.6
2017-Jun-04 19:30N 34°35' E 135°17'510.2
2017-Jun-04 19:00N 34°35' E 135°11'611.3
2017-Jun-04 18:30N 34°35' E 135°04'510.1
2017-Jun-04 18:00N 34°37' E 134°58'511.0
2017-Jun-04 17:30N 34°35' E 134°53'  
Track history (hours):
 
Tides and Currents Weather Stations Pressure Air Temp Water Temp Dewpoint Dewpoint Depression Visibility Wind Speed Wind Dir Waves Ship Positions

Ryuoh Maru No.2

Last reported at 2017-Jun-05 16:06 UTC. Time now 2017-Aug-17 13:41 UTC.
Position N 33°57' E 135°01'.
Warning: this ship's position is months out of date.

Length 80 m; draft 4.9 m.

Type: Cargo ship. MMSI: 431401218.

Date/timePositionNaut miles runAvg speedWind from/ knotsBaromVisibWave heightAir tempDewpointWater temp
2017-Jun-05 16:06N 33°57' E 135°01'412.3
2017-Jun-05 15:48N 34°00' E 135°00'412.4
2017-Jun-05 15:29N 34°04' E 134°60'612.7
2017-Jun-05 15:00N 34°10' E 134°59'1512.5
2017-Jun-05 13:48N 34°25' E 135°04'413.0
2017-Jun-05 13:30N 34°27' E 135°08'612.2
2017-Jun-05 13:00N 34°31' E 135°14'612.1
2017-Jun-05 12:31N 34°35' E 135°19'5 9.7
2017-Jun-05 12:00N 34°36' E 135°25'2 0.2
2017-Jun-05 00:55N 34°35' E 135°27'0 1.1
2017-Jun-05 00:30N 34°35' E 135°27'4 8.3
2017-Jun-05 00:00N 34°36' E 135°22'3 6.6
2017-Jun-04 23:30N 34°35' E 135°18'0 0.1
2017-Jun-04 22:53N 34°35' E 135°18'0 0.0
2017-Jun-04 22:17N 34°35' E 135°18'0 0.0
2017-Jun-04 21:41N 34°35' E 135°18'0 0.0
2017-Jun-04 21:29N 34°35' E 135°18'0 0.0
2017-Jun-04 20:59N 34°35' E 135°18'0 0.1
2017-Jun-04 20:29N 34°35' E 135°18'0 0.0
2017-Jun-04 19:47N 34°35' E 135°18'1 2.6
2017-Jun-04 19:30N 34°35' E 135°17'510.2
2017-Jun-04 19:00N 34°35' E 135°11'611.3
2017-Jun-04 18:30N 34°35' E 135°04'510.1
2017-Jun-04 18:00N 34°37' E 134°58'511.0
2017-Jun-04 17:30N 34°35' E 134°53'  

Dump ship's entire track history